sensor_id;sensor_type;location;lat;lon;timestamp;P1;durP1;ratioP1;P2;durP2;ratioP2
10872;SDS011;34586;53.616;10.032;2022-08-14T00:00:00;3.70;;;1.50;;
10872;SDS011;34586;53.616;10.032;2022-08-14T00:02:29;3.53;;;1.70;;
10872;SDS011;34586;53.616;10.032;2022-08-14T00:04:54;4.30;;;1.70;;
10872;SDS011;34586;53.616;10.032;2022-08-14T00:07:20;1.77;;;1.60;;
10872;SDS011;34586;53.616;10.032;2022-08-14T00:09:47;1.77;;;1.57;;
10872;SDS011;34586;53.616;10.032;2022-08-14T00:12:13;2.10;;;1.20;;
10872;SDS011;34586;53.616;10.032;2022-08-14T00:14:38;1.83;;;1.70;;
10872;SDS011;34586;53.616;10.032;2022-08-14T00:17:04;2.00;;;1.60;;
10872;SDS011;34586;53.616;10.032;2022-08-14T00:19:30;2.20;;;1.53;;
10872;SDS011;34586;53.616;10.032;2022-08-14T00:21:55;3.20;;;1.50;;
10872;SDS011;34586;53.616;10.032;2022-08-14T00:24:22;1.67;;;1.37;;
10872;SDS011;34586;53.616;10.032;2022-08-14T00:26:50;1.80;;;1.70;;
10872;SDS011;34586;53.616;10.032;2022-08-14T00:29:15;2.50;;;1.30;;
10872;SDS011;34586;53.616;10.032;2022-08-14T00:31:41;2.37;;;1.50;;
10872;SDS011;34586;53.616;10.032;2022-08-14T00:34:07;2.20;;;1.43;;
10872;SDS011;34586;53.616;10.032;2022-08-14T00:36:32;1.70;;;1.60;;
10872;SDS011;34586;53.616;10.032;2022-08-14T00:38:59;2.87;;;1.23;;
10872;SDS011;34586;53.616;10.032;2022-08-14T00:41:29;2.73;;;1.37;;
10872;SDS011;34586;53.616;10.032;2022-08-14T00:43:57;2.70;;;1.50;;
10872;SDS011;34586;53.616;10.032;2022-08-14T00:46:23;1.60;;;1.50;;
10872;SDS011;34586;53.616;10.032;2022-08-14T00:48:48;2.97;;;1.40;;
10872;SDS011;34586;53.616;10.032;2022-08-14T00:51:14;2.93;;;1.47;;
10872;SDS011;34586;53.616;10.032;2022-08-14T00:53:40;1.30;;;1.20;;
10872;SDS011;34586;53.616;10.032;2022-08-14T00:56:06;1.97;;;1.70;;
10872;SDS011;34586;53.616;10.032;2022-08-14T00:58:34;2.20;;;1.60;;
10872;SDS011;34586;53.616;10.032;2022-08-14T01:01:03;1.67;;;1.57;;
10872;SDS011;34586;53.616;10.032;2022-08-14T01:03:35;1.73;;;1.37;;
10872;SDS011;34586;53.616;10.032;2022-08-14T01:06:04;3.43;;;1.97;;
10872;SDS011;34586;53.616;10.032;2022-08-14T01:08:33;1.60;;;1.50;;
10872;SDS011;34586;53.616;10.032;2022-08-14T01:11:00;1.20;;;1.13;;
10872;SDS011;34586;53.616;10.032;2022-08-14T01:13:28;2.20;;;1.47;;
10872;SDS011;34586;53.616;10.032;2022-08-14T01:15:59;1.57;;;1.47;;
10872;SDS011;34586;53.616;10.032;2022-08-14T01:18:27;3.13;;;1.77;;
10872;SDS011;34586;53.616;10.032;2022-08-14T01:21:14;2.03;;;1.73;;
10872;SDS011;34586;53.616;10.032;2022-08-14T01:23:42;1.83;;;1.57;;
10872;SDS011;34586;53.616;10.032;2022-08-14T01:26:13;1.70;;;1.60;;
10872;SDS011;34586;53.616;10.032;2022-08-14T01:28:41;2.43;;;1.57;;
10872;SDS011;34586;53.616;10.032;2022-08-14T01:31:10;1.67;;;1.57;;
10872;SDS011;34586;53.616;10.032;2022-08-14T01:33:40;1.73;;;1.60;;
10872;SDS011;34586;53.616;10.032;2022-08-14T01:36:10;2.70;;;1.57;;
10872;SDS011;34586;53.616;10.032;2022-08-14T01:38:40;3.03;;;1.60;;
10872;SDS011;34586;53.616;10.032;2022-08-14T01:41:08;1.90;;;1.70;;
10872;SDS011;34586;53.616;10.032;2022-08-14T01:43:45;2.97;;;1.90;;
10872;SDS011;34586;53.616;10.032;2022-08-14T01:46:21;1.70;;;1.60;;
10872;SDS011;34586;53.616;10.032;2022-08-14T01:48:49;2.20;;;1.93;;
10872;SDS011;34586;53.616;10.032;2022-08-14T01:51:17;4.83;;;1.60;;
10872;SDS011;34586;53.616;10.032;2022-08-14T01:53:47;2.70;;;1.50;;
10872;SDS011;34586;53.616;10.032;2022-08-14T01:56:15;3.60;;;1.70;;
10872;SDS011;34586;53.616;10.032;2022-08-14T01:58:42;3.33;;;1.77;;
10872;SDS011;34586;53.616;10.032;2022-08-14T02:01:13;2.40;;;1.83;;
10872;SDS011;34586;53.616;10.032;2022-08-14T02:03:43;3.40;;;1.50;;
10872;SDS011;34586;53.616;10.032;2022-08-14T02:06:09;1.63;;;1.53;;
10872;SDS011;34586;53.616;10.032;2022-08-14T02:08:35;1.60;;;1.50;;
10872;SDS011;34586;53.616;10.032;2022-08-14T02:11:02;2.07;;;1.70;;
10872;SDS011;34586;53.616;10.032;2022-08-14T02:16:17;1.87;;;1.70;;
10872;SDS011;34586;53.616;10.032;2022-08-14T02:18:49;1.50;;;1.40;;
10872;SDS011;34586;53.616;10.032;2022-08-14T02:21:16;1.87;;;1.70;;
10872;SDS011;34586;53.616;10.032;2022-08-14T02:23:43;2.60;;;1.80;;
10872;SDS011;34586;53.616;10.032;2022-08-14T02:26:15;2.43;;;1.67;;
10872;SDS011;34586;53.616;10.032;2022-08-14T02:28:43;2.30;;;1.47;;
10872;SDS011;34586;53.616;10.032;2022-08-14T02:31:10;2.83;;;1.77;;
10872;SDS011;34586;53.616;10.032;2022-08-14T02:33:37;1.73;;;1.57;;
10872;SDS011;34586;53.616;10.032;2022-08-14T02:36:08;1.80;;;1.70;;
10872;SDS011;34586;53.616;10.032;2022-08-14T02:38:35;2.00;;;1.50;;
10872;SDS011;34586;53.616;10.032;2022-08-14T02:41:02;1.73;;;1.50;;
10872;SDS011;34586;53.616;10.032;2022-08-14T02:43:29;3.10;;;1.90;;
10872;SDS011;34586;53.616;10.032;2022-08-14T02:46:06;2.00;;;1.60;;
10872;SDS011;34586;53.616;10.032;2022-08-14T02:48:35;2.33;;;2.00;;
10872;SDS011;34586;53.616;10.032;2022-08-14T02:51:10;2.73;;;1.33;;
10872;SDS011;34586;53.616;10.032;2022-08-14T02:53:38;1.63;;;1.50;;
10872;SDS011;34586;53.616;10.032;2022-08-14T02:56:10;1.83;;;1.60;;
10872;SDS011;34586;53.616;10.032;2022-08-14T02:58:40;2.47;;;1.50;;
10872;SDS011;34586;53.616;10.032;2022-08-14T03:01:11;3.90;;;1.63;;
10872;SDS011;34586;53.616;10.032;2022-08-14T03:03:39;2.90;;;1.43;;
10872;SDS011;34586;53.616;10.032;2022-08-14T03:06:06;1.83;;;1.67;;
10872;SDS011;34586;53.616;10.032;2022-08-14T03:08:32;3.20;;;1.60;;
10872;SDS011;34586;53.616;10.032;2022-08-14T03:11:02;2.07;;;1.90;;
10872;SDS011;34586;53.616;10.032;2022-08-14T03:13:31;1.60;;;1.50;;
10872;SDS011;34586;53.616;10.032;2022-08-14T03:15:58;1.70;;;1.60;;
10872;SDS011;34586;53.616;10.032;2022-08-14T03:18:25;1.63;;;1.53;;
10872;SDS011;34586;53.616;10.032;2022-08-14T03:20:51;2.20;;;1.50;;
10872;SDS011;34586;53.616;10.032;2022-08-14T03:23:18;1.73;;;1.63;;
10872;SDS011;34586;53.616;10.032;2022-08-14T03:25:45;2.60;;;1.70;;
10872;SDS011;34586;53.616;10.032;2022-08-14T03:28:12;1.50;;;1.40;;
10872;SDS011;34586;53.616;10.032;2022-08-14T03:30:38;1.90;;;1.70;;
10872;SDS011;34586;53.616;10.032;2022-08-14T03:33:05;1.50;;;1.40;;
10872;SDS011;34586;53.616;10.032;2022-08-14T03:35:32;2.30;;;1.47;;
10872;SDS011;34586;53.616;10.032;2022-08-14T03:38:09;1.80;;;1.70;;
10872;SDS011;34586;53.616;10.032;2022-08-14T03:40:37;1.57;;;1.47;;
10872;SDS011;34586;53.616;10.032;2022-08-14T03:43:05;2.50;;;1.80;;
10872;SDS011;34586;53.616;10.032;2022-08-14T03:45:32;2.67;;;1.43;;
10872;SDS011;34586;53.616;10.032;2022-08-14T03:48:08;3.03;;;1.40;;
10872;SDS011;34586;53.616;10.032;2022-08-14T03:50:39;2.57;;;1.47;;
10872;SDS011;34586;53.616;10.032;2022-08-14T03:53:08;2.87;;;1.43;;
10872;SDS011;34586;53.616;10.032;2022-08-14T03:55:35;2.30;;;1.57;;
10872;SDS011;34586;53.616;10.032;2022-08-14T03:58:02;1.40;;;1.30;;
10872;SDS011;34586;53.616;10.032;2022-08-14T04:00:30;2.80;;;1.50;;
10872;SDS011;34586;53.616;10.032;2022-08-14T04:02:56;1.73;;;1.53;;
10872;SDS011;34586;53.616;10.032;2022-08-14T04:05:23;2.03;;;1.50;;
10872;SDS011;34586;53.616;10.032;2022-08-14T04:07:50;1.40;;;1.13;;
10872;SDS011;34586;53.616;10.032;2022-08-14T04:10:16;3.47;;;1.60;;
10872;SDS011;34586;53.616;10.032;2022-08-14T04:12:42;3.93;;;1.63;;
10872;SDS011;34586;53.616;10.032;2022-08-14T04:15:07;4.63;;;1.40;;
10872;SDS011;34586;53.616;10.032;2022-08-14T04:17:34;1.60;;;1.50;;
10872;SDS011;34586;53.616;10.032;2022-08-14T04:20:00;3.33;;;1.50;;
10872;SDS011;34586;53.616;10.032;2022-08-14T04:22:31;2.10;;;1.50;;
10872;SDS011;34586;53.616;10.032;2022-08-14T04:24:58;1.53;;;1.50;;
10872;SDS011;34586;53.616;10.032;2022-08-14T04:27:25;2.20;;;1.50;;
10872;SDS011;34586;53.616;10.032;2022-08-14T04:29:52;3.90;;;1.87;;
10872;SDS011;34586;53.616;10.032;2022-08-14T04:32:19;1.50;;;1.40;;
10872;SDS011;34586;53.616;10.032;2022-08-14T04:34:50;2.43;;;1.57;;
10872;SDS011;34586;53.616;10.032;2022-08-14T04:37:18;4.33;;;1.80;;
10872;SDS011;34586;53.616;10.032;2022-08-14T04:40:03;1.43;;;1.33;;
10872;SDS011;34586;53.616;10.032;2022-08-14T04:42:50;1.43;;;1.33;;
10872;SDS011;34586;53.616;10.032;2022-08-14T04:45:33;2.93;;;1.60;;
10872;SDS011;34586;53.616;10.032;2022-08-14T04:48:19;3.27;;;1.60;;
10872;SDS011;34586;53.616;10.032;2022-08-14T04:50:49;4.10;;;1.30;;
10872;SDS011;34586;53.616;10.032;2022-08-14T04:53:16;3.50;;;1.40;;
10872;SDS011;34586;53.616;10.032;2022-08-14T04:55:44;3.37;;;1.57;;
10872;SDS011;34586;53.616;10.032;2022-08-14T04:58:19;1.43;;;1.33;;
10872;SDS011;34586;53.616;10.032;2022-08-14T05:00:51;3.53;;;1.60;;
10872;SDS011;34586;53.616;10.032;2022-08-14T05:03:22;1.33;;;1.27;;
10872;SDS011;34586;53.616;10.032;2022-08-14T05:05:50;3.37;;;1.60;;
10872;SDS011;34586;53.616;10.032;2022-08-14T05:08:18;5.17;;;1.30;;
10872;SDS011;34586;53.616;10.032;2022-08-14T05:10:47;3.37;;;1.43;;
10872;SDS011;34586;53.616;10.032;2022-08-14T05:13:21;3.00;;;1.67;;
10872;SDS011;34586;53.616;10.032;2022-08-14T05:15:49;1.53;;;1.40;;
10872;SDS011;34586;53.616;10.032;2022-08-14T05:18:17;2.87;;;1.40;;
10872;SDS011;34586;53.616;10.032;2022-08-14T05:20:47;2.13;;;1.67;;
10872;SDS011;34586;53.616;10.032;2022-08-14T05:23:15;3.97;;;1.47;;
10872;SDS011;34586;53.616;10.032;2022-08-14T05:25:43;4.87;;;1.20;;
10872;SDS011;34586;53.616;10.032;2022-08-14T05:28:13;3.33;;;1.67;;
10872;SDS011;34586;53.616;10.032;2022-08-14T05:30:45;3.83;;;1.47;;
10872;SDS011;34586;53.616;10.032;2022-08-14T05:33:19;6.53;;;1.50;;
10872;SDS011;34586;53.616;10.032;2022-08-14T05:35:48;4.63;;;1.30;;
10872;SDS011;34586;53.616;10.032;2022-08-14T05:38:16;1.77;;;1.20;;
10872;SDS011;34586;53.616;10.032;2022-08-14T05:40:45;3.30;;;1.53;;
10872;SDS011;34586;53.616;10.032;2022-08-14T05:43:13;2.40;;;1.33;;
10872;SDS011;34586;53.616;10.032;2022-08-14T05:45:40;5.07;;;1.33;;
10872;SDS011;34586;53.616;10.032;2022-08-14T05:48:07;3.67;;;1.60;;
10872;SDS011;34586;53.616;10.032;2022-08-14T05:50:37;4.10;;;1.57;;
10872;SDS011;34586;53.616;10.032;2022-08-14T05:53:04;3.17;;;1.50;;
10872;SDS011;34586;53.616;10.032;2022-08-14T05:55:32;3.43;;;1.47;;
10872;SDS011;34586;53.616;10.032;2022-08-14T05:57:59;2.00;;;1.30;;
10872;SDS011;34586;53.616;10.032;2022-08-14T06:00:28;2.27;;;1.20;;
10872;SDS011;34586;53.616;10.032;2022-08-14T06:02:56;3.47;;;1.43;;
10872;SDS011;34586;53.616;10.032;2022-08-14T06:05:23;1.43;;;1.10;;
10872;SDS011;34586;53.616;10.032;2022-08-14T06:07:49;6.63;;;1.63;;
10872;SDS011;34586;53.616;10.032;2022-08-14T06:10:15;2.70;;;1.27;;
10872;SDS011;34586;53.616;10.032;2022-08-14T06:12:41;2.00;;;1.20;;
10872;SDS011;34586;53.616;10.032;2022-08-14T06:15:08;1.67;;;1.40;;
10872;SDS011;34586;53.616;10.032;2022-08-14T06:17:44;3.13;;;1.20;;
10872;SDS011;34586;53.616;10.032;2022-08-14T06:20:19;2.80;;;1.40;;
10872;SDS011;34586;53.616;10.032;2022-08-14T06:22:45;1.30;;;1.20;;
10872;SDS011;34586;53.616;10.032;2022-08-14T06:25:11;3.63;;;1.30;;
10872;SDS011;34586;53.616;10.032;2022-08-14T06:27:40;3.03;;;1.47;;
10872;SDS011;34586;53.616;10.032;2022-08-14T06:30:08;2.10;;;1.20;;
10872;SDS011;34586;53.616;10.032;2022-08-14T06:32:42;3.70;;;1.50;;
10872;SDS011;34586;53.616;10.032;2022-08-14T06:35:09;1.73;;;1.40;;
10872;SDS011;34586;53.616;10.032;2022-08-14T06:37:45;2.70;;;1.43;;
10872;SDS011;34586;53.616;10.032;2022-08-14T06:40:24;4.03;;;1.50;;
10872;SDS011;34586;53.616;10.032;2022-08-14T06:42:51;6.00;;;1.30;;
10872;SDS011;34586;53.616;10.032;2022-08-14T06:45:17;4.00;;;1.40;;
10872;SDS011;34586;53.616;10.032;2022-08-14T06:47:44;4.87;;;1.40;;
10872;SDS011;34586;53.616;10.032;2022-08-14T06:50:15;4.57;;;1.73;;
10872;SDS011;34586;53.616;10.032;2022-08-14T06:52:44;1.57;;;1.40;;
10872;SDS011;34586;53.616;10.032;2022-08-14T06:55:11;4.23;;;1.77;;
10872;SDS011;34586;53.616;10.032;2022-08-14T06:57:41;1.90;;;1.43;;
10872;SDS011;34586;53.616;10.032;2022-08-14T07:00:13;2.23;;;1.30;;
10872;SDS011;34586;53.616;10.032;2022-08-14T07:02:49;2.47;;;1.60;;
10872;SDS011;34586;53.616;10.032;2022-08-14T07:05:34;4.60;;;1.40;;
10872;SDS011;34586;53.616;10.032;2022-08-14T07:08:29;2.83;;;1.40;;
10872;SDS011;34586;53.616;10.032;2022-08-14T07:10:56;3.33;;;1.83;;
10872;SDS011;34586;53.616;10.032;2022-08-14T07:13:25;2.17;;;1.40;;
10872;SDS011;34586;53.616;10.032;2022-08-14T07:15:53;5.00;;;1.77;;
10872;SDS011;34586;53.616;10.032;2022-08-14T07:18:21;2.37;;;1.30;;
10872;SDS011;34586;53.616;10.032;2022-08-14T07:20:47;1.87;;;1.20;;
10872;SDS011;34586;53.616;10.032;2022-08-14T07:23:14;2.63;;;1.53;;
10872;SDS011;34586;53.616;10.032;2022-08-14T07:25:41;2.10;;;1.50;;
10872;SDS011;34586;53.616;10.032;2022-08-14T07:28:17;2.47;;;1.60;;
10872;SDS011;34586;53.616;10.032;2022-08-14T07:30:48;5.07;;;1.60;;
10872;SDS011;34586;53.616;10.032;2022-08-14T07:33:15;8.03;;;1.80;;
10872;SDS011;34586;53.616;10.032;2022-08-14T07:35:41;1.70;;;1.40;;
10872;SDS011;34586;53.616;10.032;2022-08-14T07:38:15;2.90;;;1.80;;
10872;SDS011;34586;53.616;10.032;2022-08-14T07:40:44;5.40;;;1.50;;
10872;SDS011;34586;53.616;10.032;2022-08-14T07:43:10;2.30;;;1.63;;
10872;SDS011;34586;53.616;10.032;2022-08-14T07:45:37;5.37;;;1.70;;
10872;SDS011;34586;53.616;10.032;2022-08-14T07:48:03;2.60;;;1.33;;
10872;SDS011;34586;53.616;10.032;2022-08-14T07:50:30;1.47;;;1.37;;
10872;SDS011;34586;53.616;10.032;2022-08-14T07:52:57;3.30;;;1.37;;
10872;SDS011;34586;53.616;10.032;2022-08-14T07:55:24;4.27;;;1.40;;
10872;SDS011;34586;53.616;10.032;2022-08-14T07:57:50;3.10;;;1.50;;
10872;SDS011;34586;53.616;10.032;2022-08-14T08:00:18;3.17;;;1.80;;
10872;SDS011;34586;53.616;10.032;2022-08-14T08:02:49;3.13;;;1.50;;
10872;SDS011;34586;53.616;10.032;2022-08-14T08:05:16;4.23;;;1.77;;
10872;SDS011;34586;53.616;10.032;2022-08-14T08:07:43;1.90;;;1.30;;
10872;SDS011;34586;53.616;10.032;2022-08-14T08:15:27;3.20;;;1.60;;
10872;SDS011;34586;53.616;10.032;2022-08-14T08:17:56;3.53;;;1.80;;
10872;SDS011;34586;53.616;10.032;2022-08-14T08:20:23;3.67;;;1.83;;
10872;SDS011;34586;53.616;10.032;2022-08-14T08:22:50;2.73;;;1.63;;
10872;SDS011;34586;53.616;10.032;2022-08-14T08:25:18;1.90;;;1.70;;
10872;SDS011;34586;53.616;10.032;2022-08-14T08:27:58;2.50;;;1.63;;
10872;SDS011;34586;53.616;10.032;2022-08-14T08:30:28;3.03;;;1.60;;
10872;SDS011;34586;53.616;10.032;2022-08-14T08:32:55;3.53;;;1.90;;
10872;SDS011;34586;53.616;10.032;2022-08-14T08:35:23;3.10;;;1.70;;
10872;SDS011;34586;53.616;10.032;2022-08-14T08:37:50;5.53;;;1.77;;
10872;SDS011;34586;53.616;10.032;2022-08-14T08:40:27;5.53;;;1.90;;
10872;SDS011;34586;53.616;10.032;2022-08-14T08:43:04;3.10;;;1.70;;
10872;SDS011;34586;53.616;10.032;2022-08-14T08:45:31;4.03;;;2.07;;
10872;SDS011;34586;53.616;10.032;2022-08-14T08:47:59;3.80;;;1.40;;
10872;SDS011;34586;53.616;10.032;2022-08-14T08:50:31;1.83;;;1.73;;
10872;SDS011;34586;53.616;10.032;2022-08-14T08:53:04;4.23;;;2.00;;
10872;SDS011;34586;53.616;10.032;2022-08-14T08:55:36;4.30;;;1.90;;
10872;SDS011;34586;53.616;10.032;2022-08-14T08:58:05;5.10;;;1.90;;
10872;SDS011;34586;53.616;10.032;2022-08-14T09:00:33;4.67;;;2.13;;
10872;SDS011;34586;53.616;10.032;2022-08-14T09:05:36;4.10;;;2.10;;
10872;SDS011;34586;53.616;10.032;2022-08-14T09:08:10;4.40;;;1.90;;
10872;SDS011;34586;53.616;10.032;2022-08-14T09:13:59;2.37;;;2.07;;
10872;SDS011;34586;53.616;10.032;2022-08-14T09:16:26;2.07;;;1.87;;
10872;SDS011;34586;53.616;10.032;2022-08-14T09:18:52;4.10;;;2.13;;
10872;SDS011;34586;53.616;10.032;2022-08-14T09:21:18;3.63;;;2.50;;
10872;SDS011;34586;53.616;10.032;2022-08-14T09:23:44;4.37;;;2.13;;
10872;SDS011;34586;53.616;10.032;2022-08-14T09:26:10;5.43;;;2.20;;
10872;SDS011;34586;53.616;10.032;2022-08-14T09:28:35;4.53;;;2.20;;
10872;SDS011;34586;53.616;10.032;2022-08-14T09:31:01;4.63;;;2.30;;
10872;SDS011;34586;53.616;10.032;2022-08-14T09:39:26;3.80;;;2.17;;
10872;SDS011;34586;53.616;10.032;2022-08-14T09:47:46;3.80;;;2.33;;
10872;SDS011;34586;53.616;10.032;2022-08-14T09:50:44;4.30;;;2.30;;
10872;SDS011;34586;53.616;10.032;2022-08-14T09:53:11;5.93;;;2.20;;
10872;SDS011;34586;53.616;10.032;2022-08-14T09:55:58;2.90;;;2.30;;
10872;SDS011;34586;53.616;10.032;2022-08-14T09:58:46;6.27;;;2.47;;
10872;SDS011;34586;53.616;10.032;2022-08-14T10:01:12;4.47;;;2.30;;
10872;SDS011;34586;53.616;10.032;2022-08-14T10:03:52;5.17;;;2.33;;
10872;SDS011;34586;53.616;10.032;2022-08-14T10:06:24;2.87;;;2.17;;
10872;SDS011;34586;53.616;10.032;2022-08-14T10:11:30;3.43;;;2.20;;
10872;SDS011;34586;53.616;10.032;2022-08-14T10:14:19;2.60;;;2.40;;
10872;SDS011;34586;53.616;10.032;2022-08-14T10:16:56;4.07;;;2.57;;
10872;SDS011;34586;53.616;10.032;2022-08-14T10:19:23;5.90;;;2.90;;
10872;SDS011;34586;53.616;10.032;2022-08-14T10:21:58;3.00;;;2.27;;
10872;SDS011;34586;53.616;10.032;2022-08-14T10:24:30;5.67;;;3.00;;
10872;SDS011;34586;53.616;10.032;2022-08-14T10:27:04;4.47;;;2.90;;
10872;SDS011;34586;53.616;10.032;2022-08-14T10:29:42;3.43;;;3.03;;
10872;SDS011;34586;53.616;10.032;2022-08-14T10:32:12;3.87;;;2.70;;
10872;SDS011;34586;53.616;10.032;2022-08-14T10:34:38;7.67;;;3.30;;
10872;SDS011;34586;53.616;10.032;2022-08-14T10:37:06;4.87;;;3.10;;
10872;SDS011;34586;53.616;10.032;2022-08-14T10:39:33;5.33;;;2.90;;
10872;SDS011;34586;53.616;10.032;2022-08-14T10:42:11;3.00;;;2.80;;
10872;SDS011;34586;53.616;10.032;2022-08-14T10:44:39;3.07;;;2.50;;
10872;SDS011;34586;53.616;10.032;2022-08-14T10:47:13;4.23;;;3.07;;
10872;SDS011;34586;53.616;10.032;2022-08-14T10:49:40;3.27;;;2.97;;
10872;SDS011;34586;53.616;10.032;2022-08-14T10:52:20;3.23;;;2.90;;
10872;SDS011;34586;53.616;10.032;2022-08-14T10:54:50;5.50;;;3.37;;
10872;SDS011;34586;53.616;10.032;2022-08-14T10:57:20;3.10;;;2.70;;
10872;SDS011;34586;53.616;10.032;2022-08-14T11:00:10;5.10;;;2.67;;
10872;SDS011;34586;53.616;10.032;2022-08-14T11:02:38;3.30;;;2.77;;
10872;SDS011;34586;53.616;10.032;2022-08-14T11:05:06;7.00;;;3.07;;
10872;SDS011;34586;53.616;10.032;2022-08-14T11:07:40;5.07;;;2.80;;
10872;SDS011;34586;53.616;10.032;2022-08-14T11:10:18;5.53;;;2.50;;
10872;SDS011;34586;53.616;10.032;2022-08-14T11:12:45;3.00;;;2.80;;
10872;SDS011;34586;53.616;10.032;2022-08-14T11:15:13;4.43;;;2.80;;
10872;SDS011;34586;53.616;10.032;2022-08-14T11:17:40;5.83;;;3.00;;
10872;SDS011;34586;53.616;10.032;2022-08-14T11:20:07;4.37;;;3.20;;
10872;SDS011;34586;53.616;10.032;2022-08-14T11:22:34;4.03;;;3.03;;
10872;SDS011;34586;53.616;10.032;2022-08-14T11:25:05;3.33;;;2.90;;
10872;SDS011;34586;53.616;10.032;2022-08-14T11:27:33;5.03;;;2.87;;
10872;SDS011;34586;53.616;10.032;2022-08-14T11:30:00;6.67;;;3.00;;
10872;SDS011;34586;53.616;10.032;2022-08-14T11:32:30;5.30;;;2.90;;
10872;SDS011;34586;53.616;10.032;2022-08-14T11:34:57;8.60;;;3.13;;
10872;SDS011;34586;53.616;10.032;2022-08-14T11:37:23;5.53;;;3.03;;
10872;SDS011;34586;53.616;10.032;2022-08-14T11:39:48;3.20;;;2.70;;
10872;SDS011;34586;53.616;10.032;2022-08-14T11:42:21;3.87;;;2.70;;
10872;SDS011;34586;53.616;10.032;2022-08-14T11:44:50;3.67;;;2.67;;
10872;SDS011;34586;53.616;10.032;2022-08-14T11:47:16;3.90;;;2.83;;
10872;SDS011;34586;53.616;10.032;2022-08-14T11:49:45;3.27;;;2.70;;
10872;SDS011;34586;53.616;10.032;2022-08-14T11:52:15;7.37;;;3.30;;
10872;SDS011;34586;53.616;10.032;2022-08-14T11:54:43;4.40;;;3.00;;
10872;SDS011;34586;53.616;10.032;2022-08-14T11:57:14;5.13;;;3.03;;
10872;SDS011;34586;53.616;10.032;2022-08-14T11:59:40;3.30;;;3.10;;
10872;SDS011;34586;53.616;10.032;2022-08-14T12:04:51;8.27;;;3.60;;
10872;SDS011;34586;53.616;10.032;2022-08-14T12:07:18;5.37;;;3.60;;
10872;SDS011;34586;53.616;10.032;2022-08-14T12:09:45;4.90;;;3.20;;
10872;SDS011;34586;53.616;10.032;2022-08-14T12:12:16;6.47;;;3.23;;
10872;SDS011;34586;53.616;10.032;2022-08-14T12:14:52;10.70;;;3.50;;
10872;SDS011;34586;53.616;10.032;2022-08-14T12:17:24;4.33;;;3.20;;
10872;SDS011;34586;53.616;10.032;2022-08-14T12:19:55;3.60;;;3.03;;
10872;SDS011;34586;53.616;10.032;2022-08-14T12:22:33;4.50;;;3.50;;
10872;SDS011;34586;53.616;10.032;2022-08-14T12:25:00;5.23;;;3.10;;
10872;SDS011;34586;53.616;10.032;2022-08-14T12:27:43;3.77;;;3.47;;
10872;SDS011;34586;53.616;10.032;2022-08-14T12:30:24;3.60;;;3.20;;
10872;SDS011;34586;53.616;10.032;2022-08-14T12:32:58;5.07;;;2.80;;
10872;SDS011;34586;53.616;10.032;2022-08-14T12:35:42;6.60;;;3.50;;
10872;SDS011;34586;53.616;10.032;2022-08-14T12:38:09;5.40;;;2.77;;
10872;SDS011;34586;53.616;10.032;2022-08-14T12:40:48;5.10;;;2.80;;
10872;SDS011;34586;53.616;10.032;2022-08-14T12:43:16;5.83;;;3.30;;
10872;SDS011;34586;53.616;10.032;2022-08-14T12:45:50;7.03;;;2.47;;
10872;SDS011;34586;53.616;10.032;2022-08-14T12:48:20;3.78;;;2.45;;
10872;SDS011;34586;53.616;10.032;2022-08-14T12:50:47;6.32;;;2.92;;
10872;SDS011;34586;53.616;10.032;2022-08-14T12:53:16;4.93;;;2.97;;
10872;SDS011;34586;53.616;10.032;2022-08-14T12:55:45;4.28;;;2.83;;
10872;SDS011;34586;53.616;10.032;2022-08-14T12:58:26;4.93;;;2.47;;
10872;SDS011;34586;53.616;10.032;2022-08-14T13:00:53;2.88;;;2.67;;
10872;SDS011;34586;53.616;10.032;2022-08-14T13:03:24;7.47;;;2.80;;
10872;SDS011;34586;53.616;10.032;2022-08-14T13:05:51;4.35;;;2.78;;
10872;SDS011;34586;53.616;10.032;2022-08-14T13:08:17;4.15;;;2.45;;
10872;SDS011;34586;53.616;10.032;2022-08-14T13:10:44;6.05;;;2.90;;
10872;SDS011;34586;53.616;10.032;2022-08-14T13:13:12;2.92;;;2.60;;
10872;SDS011;34586;53.616;10.032;2022-08-14T13:15:44;6.35;;;2.80;;
10872;SDS011;34586;53.616;10.032;2022-08-14T13:18:15;4.28;;;2.85;;
10872;SDS011;34586;53.616;10.032;2022-08-14T13:20:41;3.42;;;2.70;;
10872;SDS011;34586;53.616;10.032;2022-08-14T13:23:19;3.35;;;2.55;;
10872;SDS011;34586;53.616;10.032;2022-08-14T13:25:47;6.47;;;3.05;;
10872;SDS011;34586;53.616;10.032;2022-08-14T13:28:16;3.92;;;3.47;;
10872;SDS011;34586;53.616;10.032;2022-08-14T13:30:43;4.72;;;3.10;;
10872;SDS011;34586;53.616;10.032;2022-08-14T13:33:10;3.83;;;3.00;;
10872;SDS011;34586;53.616;10.032;2022-08-14T13:35:37;5.23;;;3.50;;
10872;SDS011;34586;53.616;10.032;2022-08-14T13:38:03;6.10;;;3.40;;
10872;SDS011;34586;53.616;10.032;2022-08-14T13:40:28;5.80;;;3.20;;
10872;SDS011;34586;53.616;10.032;2022-08-14T13:42:54;5.30;;;3.80;;
10872;SDS011;34586;53.616;10.032;2022-08-14T13:45:20;4.27;;;3.90;;
10872;SDS011;34586;53.616;10.032;2022-08-14T13:47:48;5.13;;;3.60;;
10872;SDS011;34586;53.616;10.032;2022-08-14T13:50:15;3.50;;;3.20;;
10872;SDS011;34586;53.616;10.032;2022-08-14T13:52:46;5.25;;;3.30;;
10872;SDS011;34586;53.616;10.032;2022-08-14T13:55:23;5.45;;;3.30;;
10872;SDS011;34586;53.616;10.032;2022-08-14T13:57:51;6.60;;;3.53;;
10872;SDS011;34586;53.616;10.032;2022-08-14T14:00:21;7.32;;;3.63;;
10872;SDS011;34586;53.616;10.032;2022-08-14T14:02:47;5.47;;;3.55;;
10872;SDS011;34586;53.616;10.032;2022-08-14T14:05:14;4.57;;;3.05;;
10872;SDS011;34586;53.616;10.032;2022-08-14T14:07:46;4.35;;;3.88;;
10872;SDS011;34586;53.616;10.032;2022-08-14T14:10:15;5.90;;;3.35;;
10872;SDS011;34586;53.616;10.032;2022-08-14T14:12:43;3.85;;;3.33;;
10872;SDS011;34586;53.616;10.032;2022-08-14T14:15:10;6.28;;;3.67;;
10872;SDS011;34586;53.616;10.032;2022-08-14T14:17:38;6.37;;;3.47;;
10872;SDS011;34586;53.616;10.032;2022-08-14T14:20:05;3.43;;;3.20;;
10872;SDS011;34586;53.616;10.032;2022-08-14T14:22:35;3.80;;;2.67;;
10872;SDS011;34586;53.616;10.032;2022-08-14T14:25:08;6.70;;;2.88;;
10872;SDS011;34586;53.616;10.032;2022-08-14T14:27:35;7.07;;;2.80;;
10872;SDS011;34586;53.616;10.032;2022-08-14T14:30:03;5.90;;;2.87;;
10872;SDS011;34586;53.616;10.032;2022-08-14T14:32:30;5.57;;;3.03;;
10872;SDS011;34586;53.616;10.032;2022-08-14T14:34:59;4.47;;;3.23;;
10872;SDS011;34586;53.616;10.032;2022-08-14T14:37:29;6.03;;;3.00;;
10872;SDS011;34586;53.616;10.032;2022-08-14T14:39:56;3.70;;;2.87;;
10872;SDS011;34586;53.616;10.032;2022-08-14T14:42:25;4.57;;;3.10;;
10872;SDS011;34586;53.616;10.032;2022-08-14T14:44:54;5.20;;;2.50;;
10872;SDS011;34586;53.616;10.032;2022-08-14T14:47:25;4.43;;;2.73;;
10872;SDS011;34586;53.616;10.032;2022-08-14T14:49:52;3.13;;;2.63;;
10872;SDS011;34586;53.616;10.032;2022-08-14T14:52:20;6.27;;;2.83;;
10872;SDS011;34586;53.616;10.032;2022-08-14T14:54:47;7.83;;;2.87;;
10872;SDS011;34586;53.616;10.032;2022-08-14T14:57:13;5.10;;;2.50;;
10872;SDS011;34586;53.616;10.032;2022-08-14T14:59:41;7.60;;;2.63;;
10872;SDS011;34586;53.616;10.032;2022-08-14T15:02:07;5.00;;;2.90;;
10872;SDS011;34586;53.616;10.032;2022-08-14T15:04:41;5.40;;;2.70;;
10872;SDS011;34586;53.616;10.032;2022-08-14T15:07:07;5.60;;;2.60;;
10872;SDS011;34586;53.616;10.032;2022-08-14T15:09:33;6.13;;;2.60;;
10872;SDS011;34586;53.616;10.032;2022-08-14T15:11:59;8.53;;;2.70;;
10872;SDS011;34586;53.616;10.032;2022-08-14T15:14:24;6.40;;;2.63;;
10872;SDS011;34586;53.616;10.032;2022-08-14T15:16:50;5.93;;;2.40;;